CKU4 weather

Cut Knife Airport
Cut Knife, Saskatchewan, Canada

Public forecast

Using degrees Celsius for public forecast. Weather courtesy of forecast.io.

Closest aviation weather report (METAR) to Cut Knife Airport

Closest report is North Battleford Airport, 28.2 nm (52.2 km) E. Retrieved 2019/10/18 02:00 UTC (42 minutes ago):

CYQW 180200Z AUTO 33004KT 9SM FEW150 SCT230 09/02 A2930 RMK SLP941 DENSITY ALT 2200FT

Closest aviation forecast (TAF) to Cut Knife Airport

Closest forecast is North Battleford Airport, 28.2 nm (52.2 km) E. Retrieved 2019-10-18 00:42 UTC (2 hours ago):

TAF CYQW 172340Z 1800/1812 21005KT P6SM SCT080 SCT240 TEMPO 1800/1806 BKN080 BKN240 BECMG 1800/1802 27006KT FM180800 VRB03KT P6SM FEW010 FEW240 PROB30 1808/1812 1/2SM FG VV002 RMK FCST BASED ON AUTO OBS NXT FCST BY 180600Z